createdAt,value
2018-06-10T00:00:26.008Z,13.60
2018-06-10T00:02:54.722Z,13.30
2018-06-10T00:05:23.273Z,12.87
2018-06-10T00:07:52.064Z,12.40
2018-06-10T00:10:20.850Z,13.47
2018-06-10T00:12:49.654Z,12.83
2018-06-10T00:15:18.487Z,13.33
2018-06-10T00:17:47.098Z,14.07
2018-06-10T00:20:15.656Z,14.10
2018-06-10T00:22:44.040Z,13.93
2018-06-10T00:25:12.700Z,14.20
2018-06-10T00:27:40.982Z,13.50
2018-06-10T00:30:09.740Z,14.03
2018-06-10T00:32:38.545Z,15.77
2018-06-10T00:35:07.181Z,14.77
2018-06-10T00:37:35.717Z,13.30
2018-06-10T00:40:05.008Z,14.73
2018-06-10T00:42:34.017Z,14.63
2018-06-10T00:45:02.466Z,14.93
2018-06-10T00:47:31.309Z,14.97
2018-06-10T00:49:59.711Z,14.20
2018-06-10T00:52:28.301Z,14.47
2018-06-10T00:54:56.692Z,14.50
2018-06-10T00:57:25.381Z,13.57
2018-06-10T00:59:53.916Z,15.10
2018-06-10T01:02:22.299Z,15.03
2018-06-10T01:04:50.729Z,14.80
2018-06-10T01:07:19.582Z,15.27
2018-06-10T01:09:48.420Z,14.30
2018-06-10T01:12:17.207Z,14.77
2018-06-10T01:14:46.016Z,14.60
2018-06-10T01:17:15.037Z,15.20
2018-06-10T01:19:43.436Z,15.13
2018-06-10T01:22:12.185Z,14.77
2018-06-10T01:24:40.858Z,14.63
2018-06-10T01:27:09.310Z,15.10
2018-06-10T01:29:37.687Z,15.03
2018-06-10T01:32:06.272Z,14.93
2018-06-10T01:34:34.888Z,15.70
2018-06-10T01:37:03.292Z,15.70
2018-06-10T01:39:32.076Z,14.10
2018-06-10T01:42:00.651Z,15.00
2018-06-10T01:44:29.491Z,15.40
2018-06-10T01:46:58.168Z,15.87
2018-06-10T01:49:26.854Z,15.07
2018-06-10T01:51:55.681Z,16.43
2018-06-10T01:54:24.022Z,16.47
2018-06-10T01:56:52.847Z,16.83
2018-06-10T01:59:21.450Z,18.87
2018-06-10T02:01:50.101Z,18.87
2018-06-10T02:04:18.878Z,17.93
2018-06-10T02:06:47.691Z,17.30
2018-06-10T02:09:16.726Z,19.87
2018-06-10T02:11:45.316Z,18.40
2018-06-10T02:14:13.767Z,19.47
2018-06-10T02:16:42.459Z,19.23
2018-06-10T02:19:11.044Z,19.43
2018-06-10T02:21:39.681Z,19.47
2018-06-10T02:24:08.246Z,19.90
2018-06-10T02:26:37.009Z,19.13
2018-06-10T02:29:05.465Z,17.73
2018-06-10T02:31:34.371Z,19.73
2018-06-10T02:34:02.969Z,19.90
2018-06-10T02:36:31.528Z,18.17
2018-06-10T02:39:00.119Z,18.20
2018-06-10T02:41:28.712Z,16.17
2018-06-10T02:43:57.598Z,17.57
2018-06-10T02:46:26.287Z,17.13
2018-06-10T02:48:54.943Z,15.27
2018-06-10T02:51:23.420Z,15.30
2018-06-10T02:53:52.232Z,14.97
2018-06-10T02:56:20.968Z,15.53
2018-06-10T02:58:49.589Z,14.70
2018-06-10T03:01:18.548Z,15.20
2018-06-10T03:03:47.090Z,14.70
2018-06-10T03:06:15.701Z,13.60
2018-06-10T03:08:44.259Z,14.57
2018-06-10T03:11:12.928Z,14.77
2018-06-10T03:13:41.574Z,14.87
2018-06-10T03:16:10.260Z,15.80
2018-06-10T03:18:38.678Z,14.87
2018-06-10T03:21:07.290Z,14.27
2018-06-10T03:23:35.723Z,14.60
2018-06-10T03:26:04.391Z,15.07
2018-06-10T03:28:32.835Z,14.23
2018-06-10T03:31:01.320Z,13.70
2018-06-10T03:33:29.880Z,13.73
2018-06-10T03:35:58.644Z,14.13
2018-06-10T03:38:27.553Z,14.33
2018-06-10T03:40:56.126Z,14.43
2018-06-10T03:43:24.824Z,15.00
2018-06-10T03:45:53.468Z,14.87
2018-06-10T03:48:22.160Z,15.37
2018-06-10T03:50:50.481Z,14.90
2018-06-10T03:53:18.895Z,16.03
2018-06-10T03:55:47.450Z,14.93
2018-06-10T03:58:15.831Z,15.80
2018-06-10T04:00:44.272Z,14.93
2018-06-10T04:03:13.080Z,16.10
2018-06-10T04:05:41.825Z,16.57
2018-06-10T04:08:10.376Z,17.00
2018-06-10T04:10:38.984Z,17.40
2018-06-10T04:13:07.662Z,16.13
2018-06-10T04:15:36.252Z,17.13
2018-06-10T04:18:05.104Z,15.60
2018-06-10T04:20:33.868Z,19.17
2018-06-10T04:23:02.400Z,19.47
2018-06-10T04:25:31.031Z,20.40
2018-06-10T04:27:59.548Z,20.00
2018-06-10T04:30:28.352Z,18.90
2018-06-10T04:32:57.020Z,20.13
2018-06-10T04:35:25.475Z,20.60
2018-06-10T04:37:54.052Z,20.07
2018-06-10T04:40:22.567Z,19.83
2018-06-10T04:42:51.133Z,20.13
2018-06-10T04:45:19.817Z,20.17
2018-06-10T04:47:48.613Z,19.27
2018-06-10T04:50:17.312Z,20.33
2018-06-10T04:52:45.709Z,19.60
2018-06-10T04:55:14.392Z,19.47
2018-06-10T04:57:43.138Z,18.93
2018-06-10T05:00:11.866Z,18.17
2018-06-10T05:02:40.395Z,19.33
2018-06-10T05:05:09.060Z,19.27
2018-06-10T05:07:37.571Z,18.67
2018-06-10T05:10:05.971Z,18.17
2018-06-10T05:12:34.747Z,18.47
2018-06-10T05:15:03.316Z,17.67
2018-06-10T05:17:31.785Z,18.60
2018-06-10T05:20:00.441Z,17.83
2018-06-10T05:22:28.884Z,17.40
2018-06-10T05:24:57.222Z,19.40
2018-06-10T05:27:25.738Z,18.03
2018-06-10T05:29:54.023Z,18.80
2018-06-10T05:32:22.564Z,17.53
2018-06-10T05:34:51.038Z,19.27
2018-06-10T05:37:19.485Z,18.97
2018-06-10T05:39:48.049Z,19.30
2018-06-10T05:42:16.799Z,17.30
2018-06-10T05:44:45.428Z,18.73
2018-06-10T05:47:14.096Z,18.93
2018-06-10T05:49:42.735Z,18.77
2018-06-10T05:52:11.244Z,19.70
2018-06-10T05:54:39.936Z,17.50
2018-06-10T05:57:08.557Z,18.57
2018-06-10T05:59:36.926Z,17.40
2018-06-10T06:02:05.756Z,18.63
2018-06-10T06:04:34.529Z,18.83
2018-06-10T06:07:03.419Z,16.83
2018-06-10T06:09:32.185Z,18.00
2018-06-10T06:12:00.494Z,18.00
2018-06-10T06:14:29.345Z,16.10
2018-06-10T06:16:58.033Z,18.70
2018-06-10T06:19:26.750Z,18.17
2018-06-10T06:21:55.268Z,18.67
2018-06-10T06:24:23.817Z,21.03
2018-06-10T06:26:52.387Z,18.57
2018-06-10T06:29:20.635Z,20.20
2018-06-10T06:31:49.308Z,19.43
2018-06-10T06:34:17.896Z,20.63
2018-06-10T06:36:46.419Z,18.03
2018-06-10T06:39:14.668Z,19.77
2018-06-10T06:41:43.200Z,20.20
2018-06-10T06:44:11.837Z,17.80
2018-06-10T06:46:40.493Z,21.87
2018-06-10T06:49:09.603Z,23.23
2018-06-10T06:51:38.194Z,21.67
2018-06-10T06:54:06.456Z,23.90
2018-06-10T06:56:34.941Z,25.53
2018-06-10T06:59:03.568Z,25.67
2018-06-10T07:01:31.978Z,25.40
2018-06-10T07:04:00.727Z,25.53
2018-06-10T07:06:29.544Z,27.37
2018-06-10T07:08:57.934Z,27.40
2018-06-10T07:11:27.010Z,27.93
2018-06-10T07:13:55.763Z,29.17
2018-06-10T07:16:24.282Z,30.40
2018-06-10T07:18:52.712Z,30.33
2018-06-10T07:21:21.479Z,30.83
2018-06-10T07:23:50.061Z,33.00
2018-06-10T07:26:18.450Z,32.17
2018-06-10T07:28:47.038Z,31.50
2018-06-10T07:31:15.788Z,31.93
2018-06-10T07:33:44.703Z,29.77
2018-06-10T07:36:14.308Z,29.90
2018-06-10T07:38:42.736Z,29.17
2018-06-10T07:41:11.445Z,29.67
2018-06-10T07:43:40.084Z,31.40
2018-06-10T07:46:08.793Z,30.23
2018-06-10T07:48:37.272Z,31.47
2018-06-10T07:51:05.772Z,33.00
2018-06-10T07:53:34.431Z,36.10
2018-06-10T07:56:02.913Z,36.67
2018-06-10T07:58:31.446Z,35.13
2018-06-10T08:01:00.114Z,32.20
2018-06-10T08:03:28.715Z,31.60
2018-06-10T08:05:57.204Z,34.80
2018-06-10T08:08:26.258Z,37.77
2018-06-10T08:10:55.292Z,33.67
2018-06-10T08:13:23.775Z,43.53
2018-06-10T08:15:52.323Z,48.37
2018-06-10T08:18:20.958Z,50.40
2018-06-10T08:20:49.531Z,50.37
2018-06-10T08:23:18.136Z,49.97
2018-06-10T08:25:46.724Z,50.27
2018-06-10T08:28:15.388Z,47.17
2018-06-10T08:30:43.846Z,46.77
2018-06-10T08:33:12.671Z,45.90
2018-06-10T08:35:41.699Z,47.43
2018-06-10T08:38:10.206Z,43.80
2018-06-10T08:40:38.688Z,53.40
2018-06-10T08:43:07.151Z,58.27
2018-06-10T08:45:35.657Z,56.93
2018-06-10T08:48:04.221Z,66.30
2018-06-10T08:50:32.843Z,55.77
2018-06-10T08:53:01.204Z,56.67
2018-06-10T08:55:29.869Z,56.37
2018-06-10T08:57:58.427Z,56.97
2018-06-10T09:00:27.052Z,60.67
2018-06-10T09:02:55.598Z,68.63
2018-06-10T09:05:24.240Z,61.93
2018-06-10T09:07:52.760Z,61.40
2018-06-10T09:10:21.541Z,60.60
2018-06-10T09:12:49.968Z,62.03
2018-06-10T09:15:18.688Z,58.47
2018-06-10T09:17:47.251Z,61.33
2018-06-10T09:20:15.535Z,55.70
2018-06-10T09:22:44.173Z,53.47
2018-06-10T09:25:12.808Z,52.80
2018-06-10T09:27:41.186Z,57.80
2018-06-10T09:30:10.286Z,59.50
2018-06-10T09:32:38.659Z,62.83
2018-06-10T09:35:07.048Z,62.17
2018-06-10T09:37:35.594Z,60.23
2018-06-10T09:40:04.493Z,63.60
2018-06-10T09:43:37.258Z,58.80
2018-06-10T09:46:05.988Z,51.00
2018-06-10T09:48:34.690Z,56.10
2018-06-10T09:52:19.268Z,54.60
2018-06-10T09:54:47.732Z,57.53
2018-06-10T09:57:16.252Z,53.40
2018-06-10T09:59:44.858Z,55.87
2018-06-10T10:02:13.617Z,54.23
2018-06-10T10:04:42.274Z,58.47
2018-06-10T10:07:10.797Z,58.03
2018-06-10T10:09:39.364Z,53.53
2018-06-10T10:12:08.001Z,50.63
2018-06-10T10:14:36.933Z,53.20
2018-06-10T10:17:05.455Z,47.37
2018-06-10T10:19:34.329Z,55.13
2018-06-10T10:22:03.208Z,48.53
2018-06-10T10:24:31.792Z,46.37
2018-06-10T10:27:00.525Z,49.53
2018-06-10T10:29:28.960Z,50.13
2018-06-10T10:31:57.382Z,50.67
2018-06-10T10:34:26.002Z,49.67
2018-06-10T10:36:54.528Z,47.77
2018-06-10T10:39:23.924Z,43.03
2018-06-10T10:41:52.335Z,44.43
2018-06-10T10:44:21.012Z,44.10
2018-06-10T10:46:49.532Z,44.07
2018-06-10T10:49:18.102Z,46.23
2018-06-10T10:51:46.665Z,51.37
2018-06-10T10:54:15.592Z,50.57
2018-06-10T10:56:44.035Z,51.73
2018-06-10T10:59:12.837Z,53.87
2018-06-10T11:01:44.309Z,55.40
2018-06-10T11:04:13.015Z,57.73
2018-06-10T11:06:41.513Z,58.37
2018-06-10T11:09:10.061Z,59.20
2018-06-10T11:11:38.408Z,64.83
2018-06-10T11:14:07.062Z,66.93
2018-06-10T11:16:35.815Z,68.37
2018-06-10T11:19:04.381Z,56.30
2018-06-10T11:21:32.909Z,54.73
2018-06-10T11:24:02.257Z,48.47
2018-06-10T11:26:31.162Z,51.37
2018-06-10T11:28:59.838Z,47.20
2018-06-10T11:31:28.572Z,49.97
2018-06-10T11:33:57.175Z,50.80
2018-06-10T11:36:25.793Z,49.50
2018-06-10T11:38:54.424Z,49.20
2018-06-10T11:41:23.261Z,52.53
2018-06-10T11:43:51.700Z,51.73
2018-06-10T11:46:20.437Z,47.70
2018-06-10T11:48:49.185Z,42.40
2018-06-10T11:51:17.567Z,41.30
2018-06-10T11:53:46.121Z,43.03
2018-06-10T11:56:14.802Z,42.43
2018-06-10T11:58:43.328Z,41.53
2018-06-10T12:01:11.957Z,36.97
2018-06-10T12:03:40.624Z,36.67
2018-06-10T12:06:09.361Z,34.07
2018-06-10T12:08:38.001Z,36.87
2018-06-10T12:11:06.924Z,33.97
2018-06-10T12:13:35.507Z,29.87
2018-06-10T12:16:04.317Z,28.53
2018-06-10T12:18:32.833Z,29.70
2018-06-10T12:21:01.413Z,29.80
2018-06-10T12:23:30.242Z,30.57
2018-06-10T12:25:58.952Z,29.90
2018-06-10T12:28:27.479Z,30.37
2018-06-10T12:30:55.996Z,28.50
2018-06-10T12:33:24.945Z,29.43
2018-06-10T12:35:53.488Z,31.80
2018-06-10T12:38:21.785Z,29.20
2018-06-10T12:40:50.630Z,25.43
2018-06-10T12:43:19.150Z,24.80
2018-06-10T12:45:47.914Z,24.77
2018-06-10T12:48:16.455Z,26.60
2018-06-10T12:50:45.105Z,24.43
2018-06-10T12:53:14.030Z,23.47
2018-06-10T12:55:42.812Z,22.23
2018-06-10T12:58:11.539Z,20.37
2018-06-10T13:00:40.007Z,21.17
2018-06-10T13:03:08.716Z,18.30
2018-06-10T13:05:37.298Z,19.87
2018-06-10T13:08:06.377Z,17.43
2018-06-10T13:10:35.205Z,18.23
2018-06-10T13:13:03.623Z,17.50
2018-06-10T13:15:32.166Z,17.67
2018-06-10T13:18:01.055Z,19.03
2018-06-10T13:20:29.599Z,18.90
2018-06-10T13:22:58.272Z,18.47
2018-06-10T13:25:26.896Z,19.87
2018-06-10T13:27:55.361Z,16.20
2018-06-10T13:30:24.245Z,15.40
2018-06-10T13:32:52.856Z,18.03
2018-06-10T13:35:21.303Z,18.47
2018-06-10T13:37:49.896Z,19.80
2018-06-10T13:40:18.492Z,17.80
2018-06-10T13:42:47.072Z,15.87
2018-06-10T13:45:15.709Z,14.57
2018-06-10T13:47:44.432Z,17.03
2018-06-10T13:50:13.143Z,17.67
2018-06-10T13:52:41.607Z,19.33
2018-06-10T13:55:10.260Z,14.43
2018-06-10T13:57:38.812Z,18.10
2018-06-10T14:00:07.894Z,15.93
2018-06-10T14:02:36.539Z,14.43
2018-06-10T14:05:06.084Z,14.30
2018-06-10T14:07:35.017Z,15.27
2018-06-10T14:10:03.871Z,13.07
2018-06-10T14:12:32.365Z,10.43
2018-06-10T14:15:00.607Z,11.83
2018-06-10T14:17:29.174Z,12.23
2018-06-10T14:19:57.797Z,15.13
2018-06-10T14:22:26.277Z,13.30
2018-06-10T14:24:54.713Z,14.57
2018-06-10T14:27:23.201Z,16.03
2018-06-10T14:29:51.880Z,13.47
2018-06-10T14:32:20.349Z,11.10
2018-06-10T14:34:48.888Z,11.90
2018-06-10T14:37:17.869Z,10.90
2018-06-10T14:39:46.577Z,10.93
2018-06-10T14:42:15.268Z,10.43
2018-06-10T14:44:50.357Z,10.33
2018-06-10T14:47:19.000Z,12.20
2018-06-10T14:49:47.406Z,12.87
2018-06-10T14:52:16.017Z,11.43
2018-06-10T14:54:44.501Z,12.07
2018-06-10T14:57:13.533Z,11.73
2018-06-10T14:59:41.941Z,11.57
2018-06-10T15:02:10.646Z,10.83
2018-06-10T15:04:39.224Z,11.00
2018-06-10T15:07:08.098Z,13.33
2018-06-10T15:09:36.862Z,10.27
2018-06-10T15:12:05.529Z,10.57
2018-06-10T15:14:34.117Z,10.40
2018-06-10T15:17:03.389Z,9.77
2018-06-10T15:19:32.189Z,11.77
2018-06-10T15:22:00.793Z,10.10
2018-06-10T15:24:29.342Z,10.60
2018-06-10T15:26:58.260Z,11.33
2018-06-10T15:29:26.799Z,10.30
2018-06-10T15:31:55.344Z,9.60
2018-06-10T15:34:25.302Z,9.17
2018-06-10T15:36:54.401Z,10.23
2018-06-10T15:39:23.192Z,9.37
2018-06-10T15:41:51.677Z,9.80
2018-06-10T15:44:20.276Z,11.17
2018-06-10T15:46:48.626Z,9.80
2018-06-10T15:49:17.251Z,9.77
2018-06-10T15:51:45.989Z,9.13
2018-06-10T15:54:14.396Z,9.87
2018-06-10T15:56:42.959Z,9.33
2018-06-10T15:59:11.588Z,8.80
2018-06-10T16:01:40.121Z,8.37
2018-06-10T16:04:08.664Z,9.03
2018-06-10T16:06:37.256Z,9.67
2018-06-10T16:09:07.437Z,8.37
2018-06-10T16:11:36.055Z,9.77
2018-06-10T16:14:04.606Z,8.80
2018-06-10T16:16:33.408Z,9.40
2018-06-10T16:19:02.333Z,9.97
2018-06-10T16:21:30.588Z,9.50
2018-06-10T16:23:59.198Z,8.80
2018-06-10T16:26:27.736Z,8.80
2018-06-10T16:28:56.305Z,9.03
2018-06-10T16:31:32.535Z,9.27
2018-06-10T16:34:01.394Z,9.10
2018-06-10T16:36:32.083Z,9.73
2018-06-10T16:39:15.152Z,8.30
2018-06-10T16:41:43.630Z,9.77
2018-06-10T16:44:12.176Z,9.23
2018-06-10T16:46:40.739Z,9.33
2018-06-10T16:49:09.179Z,9.03
2018-06-10T16:51:37.635Z,9.33
2018-06-10T16:54:06.295Z,8.80
2018-06-10T16:56:35.186Z,9.23
2018-06-10T16:59:07.498Z,9.10
2018-06-10T17:01:36.382Z,9.30
2018-06-10T17:04:05.711Z,8.50
2018-06-10T17:06:34.250Z,8.93
2018-06-10T17:09:04.582Z,9.33
2018-06-10T17:11:33.059Z,8.93
2018-06-10T17:14:18.537Z,9.63
2018-06-10T17:16:47.055Z,9.17
2018-06-10T17:19:15.755Z,9.70
2018-06-10T17:21:44.282Z,8.50
2018-06-10T17:24:12.839Z,8.70
2018-06-10T17:26:41.590Z,9.57
2018-06-10T17:29:10.486Z,9.97
2018-06-10T17:31:39.132Z,9.53
2018-06-10T17:34:07.747Z,9.73
2018-06-10T17:36:36.244Z,8.40
2018-06-10T17:39:07.561Z,8.97
2018-06-10T17:41:36.282Z,8.50
2018-06-10T17:44:05.174Z,8.87
2018-06-10T17:46:33.692Z,8.53
2018-06-10T17:49:02.340Z,8.90
2018-06-10T17:51:30.945Z,8.20
2018-06-10T17:53:59.552Z,9.10
2018-06-10T17:56:28.496Z,9.23
2018-06-10T17:58:57.156Z,8.80
2018-06-10T18:01:25.692Z,9.10
2018-06-10T18:03:54.337Z,9.43
2018-06-10T18:06:22.967Z,8.80
2018-06-10T18:08:51.490Z,8.70
2018-06-10T18:11:20.101Z,9.33
2018-06-10T18:13:48.731Z,8.43
2018-06-10T18:16:17.165Z,8.73
2018-06-10T18:18:45.966Z,8.83
2018-06-10T18:21:14.897Z,8.90
2018-06-10T18:23:43.222Z,8.00
2018-06-10T18:26:11.766Z,8.83
2018-06-10T19:24:09.149Z,11.43
2018-06-10T19:26:37.831Z,11.93
2018-06-10T19:29:06.255Z,11.73
2018-06-10T19:31:34.651Z,11.67
2018-06-10T19:34:03.230Z,11.73
2018-06-10T19:36:31.733Z,10.97
2018-06-10T19:39:00.452Z,11.13
2018-06-10T19:41:28.998Z,11.60
2018-06-10T19:43:57.519Z,11.73
2018-06-10T19:46:26.185Z,11.90
2018-06-10T19:48:54.805Z,11.97
2018-06-10T19:51:23.107Z,10.97
2018-06-10T19:53:51.764Z,11.20
2018-06-10T19:56:20.431Z,12.00
2018-06-10T19:58:49.186Z,11.80
2018-06-10T20:01:17.684Z,11.80
2018-06-10T20:03:46.329Z,11.43
2018-06-10T20:06:14.873Z,11.67
2018-06-10T20:08:43.462Z,11.27
2018-06-10T20:11:11.997Z,11.97
2018-06-10T20:13:40.429Z,11.67
2018-06-10T20:16:09.209Z,12.07
2018-06-10T20:18:37.645Z,11.73
2018-06-10T20:21:06.297Z,11.57
2018-06-10T20:23:34.741Z,11.63
2018-06-10T20:26:03.354Z,11.03
2018-06-10T20:28:31.949Z,11.93
2018-06-10T20:31:00.508Z,12.00
2018-06-10T20:33:28.982Z,12.33
2018-06-10T20:35:57.698Z,11.97
2018-06-10T20:38:26.432Z,12.77
2018-06-10T20:40:55.098Z,12.40
2018-06-10T20:43:23.828Z,12.60
2018-06-10T20:45:52.577Z,12.63
2018-06-10T20:48:21.315Z,12.83
2018-06-10T20:50:50.044Z,12.23
2018-06-10T20:53:18.916Z,13.10
2018-06-10T20:55:47.865Z,12.73
2018-06-10T20:58:16.269Z,13.07
2018-06-10T21:00:44.844Z,12.67
2018-06-10T21:03:13.459Z,12.73
2018-06-10T21:05:41.772Z,13.07
2018-06-10T21:08:10.360Z,13.30
2018-06-10T21:10:38.889Z,14.63
2018-06-10T21:13:07.363Z,14.30
2018-06-10T21:15:36.173Z,12.97
2018-06-10T21:18:04.982Z,14.70
2018-06-10T21:20:33.421Z,14.63
2018-06-10T21:23:02.145Z,14.53
2018-06-10T21:25:30.563Z,15.87
2018-06-10T21:27:58.989Z,16.03
2018-06-10T21:30:27.538Z,16.10
2018-06-10T21:32:56.078Z,16.57
2018-06-10T21:35:24.942Z,17.00
2018-06-10T21:37:53.587Z,17.20
2018-06-10T21:40:23.362Z,15.63
2018-06-10T21:42:52.049Z,16.00
2018-06-10T21:45:20.634Z,14.97
2018-06-10T21:47:49.071Z,15.47
2018-06-10T21:50:17.639Z,14.77
2018-06-10T21:52:46.108Z,15.37
2018-06-10T21:55:15.067Z,15.23
2018-06-10T21:57:44.025Z,15.53
2018-06-10T22:00:24.304Z,15.87
2018-06-10T22:02:53.527Z,14.60
2018-06-10T22:05:22.384Z,14.60
2018-06-10T22:07:51.246Z,14.47
2018-06-10T22:10:19.732Z,14.90
2018-06-10T22:12:48.434Z,16.93
2018-06-10T22:15:17.085Z,15.50
2018-06-10T22:17:45.588Z,15.00
2018-06-10T22:20:14.180Z,15.00
2018-06-10T22:22:42.782Z,15.83
2018-06-10T22:25:11.260Z,15.50
2018-06-10T22:27:40.239Z,15.77
2018-06-10T22:30:08.824Z,14.90
2018-06-10T22:32:37.359Z,15.63
2018-06-10T22:35:06.107Z,15.83
2018-06-10T22:37:34.717Z,14.87
2018-06-10T22:40:03.468Z,16.60
2018-06-10T22:42:31.995Z,15.53
2018-06-10T22:45:00.779Z,14.93
2018-06-10T22:47:29.305Z,15.13
2018-06-10T22:49:58.008Z,15.30
2018-06-10T22:52:26.465Z,15.10
2018-06-10T22:54:55.717Z,14.93
2018-06-10T22:57:24.399Z,14.50
2018-06-10T22:59:52.909Z,14.97
2018-06-10T23:02:21.257Z,14.20
2018-06-10T23:04:50.123Z,13.80
2018-06-10T23:07:18.715Z,14.10
2018-06-10T23:09:47.281Z,13.90
2018-06-10T23:12:15.883Z,15.27
2018-06-10T23:14:44.301Z,13.93
2018-06-10T23:17:13.060Z,14.33
2018-06-10T23:19:41.620Z,15.73
2018-06-10T23:22:10.230Z,16.27
2018-06-10T23:24:38.838Z,15.43
2018-06-10T23:27:07.542Z,16.13
2018-06-10T23:29:36.113Z,16.50
2018-06-10T23:32:04.815Z,16.70
2018-06-10T23:34:33.111Z,16.60
2018-06-10T23:37:01.818Z,17.27
2018-06-10T23:39:30.375Z,16.83
2018-06-10T23:41:58.872Z,16.13
2018-06-10T23:44:27.535Z,15.57
2018-06-10T23:46:56.148Z,18.03
2018-06-10T23:49:24.693Z,17.77
2018-06-10T23:51:53.191Z,17.90
2018-06-10T23:54:21.612Z,19.30
2018-06-10T23:56:50.142Z,17.47
2018-06-10T23:59:18.540Z,17.80
